createdAt,value
2018-10-18T00:04:35.434Z,91.91
2018-10-18T00:09:20.002Z,91.10
2018-10-18T00:14:02.997Z,91.12
2018-10-18T00:18:46.345Z,91.90
2018-10-18T00:23:29.258Z,91.31
2018-10-18T00:28:12.125Z,91.44
2018-10-18T00:32:55.122Z,90.94
2018-10-18T00:37:38.447Z,91.12
2018-10-18T00:42:21.378Z,93.13
2018-10-18T00:47:04.405Z,90.49
2018-10-18T00:51:48.461Z,88.21
2018-10-18T00:56:31.354Z,90.85
2018-10-18T01:01:15.266Z,91.32
2018-10-18T01:05:58.151Z,89.59
2018-10-18T01:10:42.029Z,89.25
2018-10-18T01:15:24.895Z,93.88
2018-10-18T01:20:09.935Z,93.12
2018-10-18T01:24:52.783Z,94.39
2018-10-18T01:29:35.836Z,94.77
2018-10-18T01:34:18.681Z,94.73
2018-10-18T01:39:02.906Z,93.80
2018-10-18T01:43:45.782Z,94.55
2018-10-18T01:48:28.743Z,93.00
2018-10-18T01:53:11.785Z,94.60
2018-10-18T01:57:54.667Z,95.16
2018-10-18T02:02:39.747Z,94.65
2018-10-18T02:07:22.636Z,93.94
2018-10-18T02:12:07.831Z,92.96
2018-10-18T02:16:50.697Z,92.37
2018-10-18T02:21:34.772Z,90.14
2018-10-18T02:26:17.625Z,90.19
2018-10-18T02:31:01.511Z,90.16
2018-10-18T02:35:44.341Z,89.97
2018-10-18T02:40:28.381Z,91.15
2018-10-18T02:45:11.233Z,90.41
2018-10-18T02:49:54.342Z,89.92
2018-10-18T02:54:37.180Z,91.73
2018-10-18T02:59:20.205Z,90.35
2018-10-18T03:04:03.204Z,91.16
2018-10-18T03:08:46.151Z,90.76
2018-10-18T03:13:29.060Z,90.87
2018-10-18T03:18:11.998Z,92.07
2018-10-18T03:22:55.082Z,90.97
2018-10-18T03:27:38.439Z,91.49
2018-10-18T03:32:23.809Z,90.26
2018-10-18T03:37:06.711Z,90.32
2018-10-18T03:41:50.650Z,89.50
2018-10-18T03:46:33.731Z,91.77
2018-10-18T03:51:17.713Z,91.10
2018-10-18T03:56:00.673Z,91.50
2018-10-18T04:00:44.779Z,90.75
2018-10-18T04:05:27.626Z,90.35
2018-10-18T04:10:10.594Z,90.21
2018-10-18T04:14:53.490Z,89.76
2018-10-18T04:19:36.561Z,91.26
2018-10-18T04:24:19.515Z,92.56
2018-10-18T04:29:02.621Z,90.79
2018-10-18T04:33:45.528Z,90.25
2018-10-18T04:38:28.637Z,90.36
2018-10-18T04:43:16.180Z,90.47
2018-10-18T04:47:59.221Z,88.96
2018-10-18T04:52:42.123Z,91.95
2018-10-18T04:57:25.053Z,92.05
2018-10-18T05:02:09.287Z,89.43
2018-10-18T05:06:52.228Z,89.27
2018-10-18T05:11:36.205Z,90.11
2018-10-18T05:16:19.102Z,92.76
2018-10-18T05:21:02.222Z,88.92
2018-10-18T05:25:46.155Z,92.15
2018-10-18T05:30:30.033Z,91.83
2018-10-18T05:35:12.910Z,91.38
2018-10-18T05:39:55.830Z,92.03
2018-10-18T05:44:38.742Z,91.64
2018-10-18T05:49:23.687Z,92.21
2018-10-18T05:54:07.940Z,92.04
2018-10-18T05:58:50.991Z,91.17
2018-10-18T06:03:33.865Z,90.97
2018-10-18T06:08:17.122Z,90.37
2018-10-18T06:13:00.078Z,89.24
2018-10-18T06:17:43.050Z,88.97
2018-10-18T06:22:27.141Z,89.25
2018-10-18T06:27:10.021Z,89.72
2018-10-18T06:31:54.963Z,90.30
2018-10-18T06:36:37.841Z,88.86
2018-10-18T06:41:24.058Z,90.56
2018-10-18T06:46:10.165Z,92.05
2018-10-18T06:50:54.179Z,89.70
2018-10-18T06:55:37.130Z,89.46
2018-10-18T07:00:23.516Z,88.33
2018-10-18T07:05:07.855Z,88.46
2018-10-18T07:09:54.738Z,88.88
2018-10-18T07:14:37.632Z,87.96
2018-10-18T07:19:21.679Z,88.85
2018-10-18T07:24:04.643Z,87.18
2018-10-18T07:28:49.494Z,86.71
2018-10-18T07:33:32.406Z,86.19
2018-10-18T07:38:16.248Z,86.98
2018-10-18T07:42:59.132Z,86.33
2018-10-18T07:47:45.453Z,90.58
2018-10-18T07:52:28.327Z,88.69
2018-10-18T07:57:11.187Z,88.44
2018-10-18T08:01:54.373Z,89.19
2018-10-18T08:06:37.248Z,90.87
2018-10-18T08:11:23.410Z,89.56
2018-10-18T08:16:06.368Z,88.27
2018-10-18T08:20:50.434Z,87.62
2018-10-18T08:25:33.345Z,86.84
2018-10-18T08:30:21.920Z,86.30
2018-10-18T08:35:05.645Z,86.51
2018-10-18T08:39:49.657Z,85.70
2018-10-18T08:44:32.641Z,85.71
2018-10-18T08:49:16.652Z,84.66
2018-10-18T08:53:59.574Z,84.94
2018-10-18T08:58:43.521Z,82.80
2018-10-18T09:03:26.422Z,80.75
2018-10-18T09:08:09.574Z,79.46
2018-10-18T09:12:53.328Z,78.12
2018-10-18T09:17:37.749Z,77.07
2018-10-18T09:22:20.641Z,74.10
2018-10-18T09:27:03.588Z,73.63
2018-10-18T09:31:47.524Z,72.30
2018-10-18T09:36:30.400Z,70.93
2018-10-18T09:41:14.322Z,71.40
2018-10-18T09:45:57.296Z,70.47
2018-10-18T09:50:43.914Z,70.82
2018-10-18T09:55:26.826Z,71.01
2018-10-18T10:00:18.770Z,71.65
2018-10-18T10:05:01.628Z,73.42
2018-10-18T10:09:47.981Z,73.99
2018-10-18T10:14:30.885Z,72.54
2018-10-18T10:19:15.880Z,73.29
2018-10-18T10:23:58.690Z,73.35
2018-10-18T10:28:46.154Z,73.25
2018-10-18T10:33:29.124Z,74.77
2018-10-18T10:38:14.022Z,74.94
2018-10-18T10:42:56.966Z,75.57
2018-10-18T10:47:42.662Z,75.74
2018-10-18T10:52:25.589Z,76.20
2018-10-18T10:57:08.500Z,75.92
2018-10-18T11:01:57.237Z,74.78
2018-10-18T11:06:42.403Z,75.76
2018-10-18T11:11:27.521Z,75.49
2018-10-18T11:16:11.229Z,76.21
2018-10-18T11:20:56.409Z,75.23
2018-10-18T11:25:39.297Z,75.13
2018-10-18T11:30:23.507Z,75.51
2018-10-18T11:35:06.410Z,75.63
2018-10-18T11:39:51.524Z,74.87
2018-10-18T11:44:40.371Z,74.63
2018-10-18T11:49:25.015Z,73.80
2018-10-18T11:54:08.946Z,73.61
2018-10-18T11:58:56.831Z,73.99
2018-10-18T12:03:42.197Z,74.77
2018-10-18T12:08:27.975Z,74.51
2018-10-18T12:13:12.664Z,75.15
2018-10-18T12:17:58.254Z,75.62
2018-10-18T12:22:41.191Z,75.29
2018-10-18T12:27:25.166Z,76.03
2018-10-18T12:32:08.142Z,74.95
2018-10-18T12:36:51.001Z,76.08
2018-10-18T12:41:35.021Z,74.51
2018-10-18T12:46:17.768Z,74.02
2018-10-18T12:51:02.846Z,74.59
2018-10-18T12:55:45.766Z,74.66
2018-10-18T13:00:30.676Z,74.33
2018-10-18T13:05:13.661Z,73.20
2018-10-18T13:09:57.688Z,72.64
2018-10-18T13:14:40.617Z,72.74
2018-10-18T13:19:23.843Z,72.18
2018-10-18T13:24:06.754Z,72.25
2018-10-18T13:28:49.759Z,72.41
2018-10-18T13:33:32.631Z,73.47
2018-10-18T13:38:15.984Z,72.79
2018-10-18T13:42:59.697Z,73.19
2018-10-18T13:47:42.811Z,72.63
2018-10-18T13:53:55.187Z,72.74
2018-10-18T13:58:39.243Z,73.49
2018-10-18T14:03:22.232Z,73.08
2018-10-18T14:08:06.300Z,74.04
2018-10-18T14:12:50.558Z,74.21
2018-10-18T14:17:33.675Z,73.84
2018-10-18T14:22:16.485Z,73.95
2018-10-18T14:27:00.597Z,74.96
2018-10-18T14:31:43.490Z,75.32
2018-10-18T14:36:26.403Z,76.32
2018-10-18T14:41:10.556Z,75.80
2018-10-18T14:45:53.439Z,75.44
2018-10-18T14:50:37.496Z,76.66
2018-10-18T14:55:20.269Z,77.54
2018-10-18T15:00:03.783Z,75.77
2018-10-18T15:04:49.846Z,75.46
2018-10-18T15:09:33.653Z,75.75
2018-10-18T15:14:17.560Z,75.96
2018-10-18T15:19:00.483Z,76.21
2018-10-18T15:23:43.344Z,79.56
2018-10-18T15:28:26.273Z,80.39
2018-10-18T15:33:09.218Z,80.60
2018-10-18T15:37:53.401Z,81.05
2018-10-18T15:42:36.270Z,82.35
2018-10-18T15:47:21.348Z,82.62
2018-10-18T15:52:04.230Z,82.35
2018-10-18T15:56:47.199Z,82.94
2018-10-18T16:01:30.105Z,79.73
2018-10-18T16:06:13.100Z,79.14
2018-10-18T16:10:57.861Z,79.70
2018-10-18T16:15:40.879Z,81.95
2018-10-18T16:20:25.574Z,81.16
2018-10-18T16:25:12.898Z,80.08
2018-10-18T16:29:56.772Z,78.56
2018-10-18T16:34:40.307Z,79.64
2018-10-18T16:39:23.388Z,81.69
2018-10-18T16:44:07.191Z,79.48
2018-10-18T16:48:50.135Z,79.44
2018-10-18T16:53:34.017Z,81.97
2018-10-18T16:58:16.982Z,81.12
2018-10-18T17:02:59.861Z,80.66
2018-10-18T17:07:43.189Z,80.17
2018-10-18T17:12:26.145Z,85.91
2018-10-18T17:17:09.311Z,86.31
2018-10-18T17:21:53.242Z,85.92
2018-10-18T17:26:36.731Z,85.99
2018-10-18T17:31:19.583Z,84.09
2018-10-18T17:36:02.948Z,85.23
2018-10-18T17:40:47.080Z,84.31
2018-10-18T17:45:29.950Z,84.49
2018-10-18T17:50:13.088Z,86.22
2018-10-18T17:54:56.088Z,87.23
2018-10-18T17:59:40.100Z,86.48
2018-10-18T18:04:23.287Z,86.40
2018-10-18T18:09:06.765Z,87.92
2018-10-18T18:13:49.741Z,84.78
2018-10-18T18:18:34.047Z,84.22
2018-10-18T18:23:16.970Z,84.19
2018-10-18T18:28:00.914Z,87.08
2018-10-18T18:32:44.392Z,88.29
2018-10-18T18:37:27.514Z,88.25
2018-10-18T18:42:10.513Z,90.23
2018-10-18T18:46:54.585Z,90.88
2018-10-18T18:51:37.510Z,91.57
2018-10-18T18:56:20.811Z,90.94
2018-10-18T19:01:16.922Z,89.92
2018-10-18T19:06:09.078Z,87.54
2018-10-18T19:10:53.426Z,90.76
2018-10-18T19:15:37.453Z,94.31
2018-10-18T19:20:21.763Z,93.22
2018-10-18T19:25:06.408Z,94.51
2018-10-18T19:29:50.432Z,96.32
2018-10-18T19:34:33.371Z,91.45
2018-10-18T19:39:18.368Z,90.07
2018-10-18T19:44:01.324Z,90.15
2018-10-18T19:48:46.868Z,90.91
2018-10-18T19:53:29.796Z,89.52
2018-10-18T19:58:12.859Z,89.14
2018-10-18T20:02:57.145Z,91.64
2018-10-18T20:07:42.229Z,95.49
2018-10-18T20:12:25.083Z,96.12
2018-10-18T20:17:09.945Z,95.44
2018-10-18T20:21:52.835Z,92.29
2018-10-18T20:26:36.799Z,95.35
2018-10-18T20:31:19.675Z,95.33
2018-10-18T20:36:04.267Z,95.39
2018-10-18T20:40:47.167Z,91.14
2018-10-18T20:45:33.673Z,90.78
2018-10-18T20:50:17.534Z,90.98
2018-10-18T20:55:00.450Z,94.07
2018-10-18T20:59:43.322Z,95.44
2018-10-18T21:04:26.178Z,91.26
2018-10-18T21:09:10.431Z,94.37
2018-10-18T21:13:53.227Z,96.33
2018-10-18T21:18:36.493Z,97.17
2018-10-18T21:23:20.447Z,92.40
2018-10-18T21:28:03.459Z,92.66
2018-10-18T21:32:46.365Z,91.61
2018-10-18T21:37:30.544Z,94.75
2018-10-18T21:42:13.378Z,95.61
2018-10-18T21:46:59.217Z,93.72
2018-10-18T21:51:42.070Z,95.57
2018-10-18T21:56:25.099Z,95.35
2018-10-18T22:01:09.110Z,96.62
2018-10-18T22:05:52.150Z,92.46
2018-10-18T22:10:35.006Z,95.69
2018-10-18T22:15:17.874Z,97.41
2018-10-18T22:20:05.390Z,94.81
2018-10-18T22:24:48.322Z,92.85
2018-10-18T22:29:32.449Z,92.22
2018-10-18T22:34:15.345Z,92.45
2018-10-18T22:38:58.598Z,93.79
2018-10-18T22:43:41.501Z,92.36
2018-10-18T22:48:24.449Z,91.19
2018-10-18T22:53:07.331Z,92.22
2018-10-18T22:57:50.878Z,95.26
2018-10-18T23:02:34.277Z,95.86
2018-10-18T23:07:17.321Z,93.21
2018-10-18T23:12:00.181Z,94.20
2018-10-18T23:16:45.256Z,92.75
2018-10-18T23:21:28.169Z,94.90
2018-10-18T23:26:11.086Z,95.33
2018-10-18T23:30:54.033Z,95.87
2018-10-18T23:35:37.158Z,93.82
2018-10-18T23:40:20.046Z,94.15
2018-10-18T23:45:03.028Z,93.64
2018-10-18T23:49:46.354Z,94.56
2018-10-18T23:54:29.172Z,96.67
2018-10-18T23:59:12.148Z,96.40
